sensor_id;sensor_type;location;lat;lon;timestamp;temperature;humidity
69546;SHT31;56766;52.260;20.746;2022-07-10T00:02:03;14.82;76.54
69546;SHT31;56766;52.260;20.746;2022-07-10T00:04:30;14.81;76.66
69546;SHT31;56766;52.260;20.746;2022-07-10T00:06:56;14.77;76.64
69546;SHT31;56766;52.260;20.746;2022-07-10T00:09:24;14.75;76.50
69546;SHT31;56766;52.260;20.746;2022-07-10T00:11:54;14.75;76.23
69546;SHT31;56766;52.260;20.746;2022-07-10T00:14:21;14.75;76.06
69546;SHT31;56766;52.260;20.746;2022-07-10T00:16:48;14.71;76.05
69546;SHT31;56766;52.260;20.746;2022-07-10T00:19:14;14.65;76.06
69546;SHT31;56766;52.260;20.746;2022-07-10T00:21:41;14.61;76.23
69546;SHT31;56766;52.260;20.746;2022-07-10T00:24:08;14.51;76.30
69546;SHT31;56766;52.260;20.746;2022-07-10T00:26:36;14.42;76.41
69546;SHT31;56766;52.260;20.746;2022-07-10T00:29:03;14.36;76.65
69546;SHT31;56766;52.260;20.746;2022-07-10T00:31:29;14.31;76.65
69546;SHT31;56766;52.260;20.746;2022-07-10T00:33:56;14.24;76.88
69546;SHT31;56766;52.260;20.746;2022-07-10T00:36:23;14.16;77.03
69546;SHT31;56766;52.260;20.746;2022-07-10T00:38:49;14.12;77.11
69546;SHT31;56766;52.260;20.746;2022-07-10T00:41:16;14.08;77.34
69546;SHT31;56766;52.260;20.746;2022-07-10T00:43:54;14.04;77.39
69546;SHT31;56766;52.260;20.746;2022-07-10T00:46:25;13.98;77.46
69546;SHT31;56766;52.260;20.746;2022-07-10T00:48:53;13.94;77.74
69546;SHT31;56766;52.260;20.746;2022-07-10T00:51:24;13.91;77.85
69546;SHT31;56766;52.260;20.746;2022-07-10T00:53:53;13.91;77.84
69546;SHT31;56766;52.260;20.746;2022-07-10T00:56:23;13.89;77.96
69546;SHT31;56766;52.260;20.746;2022-07-10T00:58:52;13.87;77.95
69546;SHT31;56766;52.260;20.746;2022-07-10T01:01:20;13.88;78.10
69546;SHT31;56766;52.260;20.746;2022-07-10T01:03:49;13.90;78.29
69546;SHT31;56766;52.260;20.746;2022-07-10T01:06:16;13.92;78.35
69546;SHT31;56766;52.260;20.746;2022-07-10T01:08:45;13.97;78.34
69546;SHT31;56766;52.260;20.746;2022-07-10T01:11:13;14.00;78.38
69546;SHT31;56766;52.260;20.746;2022-07-10T01:13:42;13.98;78.33
69546;SHT31;56766;52.260;20.746;2022-07-10T01:16:11;14.00;78.59
69546;SHT31;56766;52.260;20.746;2022-07-10T01:18:38;14.04;78.82
69546;SHT31;56766;52.260;20.746;2022-07-10T01:21:05;14.02;79.11
69546;SHT31;56766;52.260;20.746;2022-07-10T01:23:32;13.99;79.38
69546;SHT31;56766;52.260;20.746;2022-07-10T01:25:59;13.97;79.46
69546;SHT31;56766;52.260;20.746;2022-07-10T01:28:27;14.00;79.79
69546;SHT31;56766;52.260;20.746;2022-07-10T01:30:55;13.99;79.97
69546;SHT31;56766;52.260;20.746;2022-07-10T01:33:22;14.00;80.19
69546;SHT31;56766;52.260;20.746;2022-07-10T01:35:49;14.05;79.84
69546;SHT31;56766;52.260;20.746;2022-07-10T01:38:15;14.11;79.91
69546;SHT31;56766;52.260;20.746;2022-07-10T01:40:42;14.18;79.79
69546;SHT31;56766;52.260;20.746;2022-07-10T01:43:09;14.22;79.82
69546;SHT31;56766;52.260;20.746;2022-07-10T01:45:35;14.22;79.91
69546;SHT31;56766;52.260;20.746;2022-07-10T01:48:02;14.22;79.68
69546;SHT31;56766;52.260;20.746;2022-07-10T01:50:29;14.24;79.47
69546;SHT31;56766;52.260;20.746;2022-07-10T01:52:55;14.24;79.42
69546;SHT31;56766;52.260;20.746;2022-07-10T01:55:22;14.23;79.51
69546;SHT31;56766;52.260;20.746;2022-07-10T01:57:48;14.24;79.51
69546;SHT31;56766;52.260;20.746;2022-07-10T02:00:15;14.29;79.70
69546;SHT31;56766;52.260;20.746;2022-07-10T02:02:42;14.30;79.73
69546;SHT31;56766;52.260;20.746;2022-07-10T02:05:29;14.26;79.86
69546;SHT31;56766;52.260;20.746;2022-07-10T02:07:56;14.24;79.61
69546;SHT31;56766;52.260;20.746;2022-07-10T02:10:22;14.23;79.64
69546;SHT31;56766;52.260;20.746;2022-07-10T02:12:49;14.23;79.71
69546;SHT31;56766;52.260;20.746;2022-07-10T02:15:15;14.22;79.71
69546;SHT31;56766;52.260;20.746;2022-07-10T02:17:42;14.18;79.72
69546;SHT31;56766;52.260;20.746;2022-07-10T02:20:09;14.16;79.79
69546;SHT31;56766;52.260;20.746;2022-07-10T02:22:37;14.14;79.92
69546;SHT31;56766;52.260;20.746;2022-07-10T02:25:04;14.18;79.71
69546;SHT31;56766;52.260;20.746;2022-07-10T02:27:31;14.19;79.58
69546;SHT31;56766;52.260;20.746;2022-07-10T02:29:58;14.21;79.54
69546;SHT31;56766;52.260;20.746;2022-07-10T02:32:24;14.22;79.64
69546;SHT31;56766;52.260;20.746;2022-07-10T02:34:51;14.21;79.48
69546;SHT31;56766;52.260;20.746;2022-07-10T02:37:18;14.21;79.57
69546;SHT31;56766;52.260;20.746;2022-07-10T02:39:45;14.16;79.69
69546;SHT31;56766;52.260;20.746;2022-07-10T02:42:11;14.11;79.92
69546;SHT31;56766;52.260;20.746;2022-07-10T02:44:38;14.07;79.92
69546;SHT31;56766;52.260;20.746;2022-07-10T02:47:04;14.05;79.78
69546;SHT31;56766;52.260;20.746;2022-07-10T02:49:31;14.01;79.93
69546;SHT31;56766;52.260;20.746;2022-07-10T02:51:59;13.95;79.82
69546;SHT31;56766;52.260;20.746;2022-07-10T02:54:26;13.90;79.65
69546;SHT31;56766;52.260;20.746;2022-07-10T02:56:52;13.85;79.58
69546;SHT31;56766;52.260;20.746;2022-07-10T02:59:19;13.81;79.51
69546;SHT31;56766;52.260;20.746;2022-07-10T03:01:45;13.76;79.71
69546;SHT31;56766;52.260;20.746;2022-07-10T03:04:12;13.74;79.68
69546;SHT31;56766;52.260;20.746;2022-07-10T03:06:39;13.69;79.70
69546;SHT31;56766;52.260;20.746;2022-07-10T03:09:05;13.63;79.63
69546;SHT31;56766;52.260;20.746;2022-07-10T03:11:32;13.59;79.65
69546;SHT31;56766;52.260;20.746;2022-07-10T03:13:58;13.65;79.58
69546;SHT31;56766;52.260;20.746;2022-07-10T03:16:25;13.71;79.73
69546;SHT31;56766;52.260;20.746;2022-07-10T03:18:52;13.80;79.59
69546;SHT31;56766;52.260;20.746;2022-07-10T03:21:21;13.85;79.60
69546;SHT31;56766;52.260;20.746;2022-07-10T03:23:47;13.93;79.66
69546;SHT31;56766;52.260;20.746;2022-07-10T03:26:14;14.06;79.56
69546;SHT31;56766;52.260;20.746;2022-07-10T03:28:41;14.23;79.62
69546;SHT31;56766;52.260;20.746;2022-07-10T03:31:08;14.70;79.54
69546;SHT31;56766;52.260;20.746;2022-07-10T03:33:34;15.45;78.73
69546;SHT31;56766;52.260;20.746;2022-07-10T03:36:01;16.11;77.78
69546;SHT31;56766;52.260;20.746;2022-07-10T03:38:29;16.82;76.41
69546;SHT31;56766;52.260;20.746;2022-07-10T03:40:56;17.03;75.21
69546;SHT31;56766;52.260;20.746;2022-07-10T03:43:23;16.78;75.18
69546;SHT31;56766;52.260;20.746;2022-07-10T03:45:51;16.57;75.17
69546;SHT31;56766;52.260;20.746;2022-07-10T03:48:17;16.35;75.24
69546;SHT31;56766;52.260;20.746;2022-07-10T03:50:44;16.19;75.20
69546;SHT31;56766;52.260;20.746;2022-07-10T03:53:11;16.00;75.30
69546;SHT31;56766;52.260;20.746;2022-07-10T03:55:38;15.88;75.60
69546;SHT31;56766;52.260;20.746;2022-07-10T03:58:05;15.83;75.69
69546;SHT31;56766;52.260;20.746;2022-07-10T04:00:31;15.83;75.67
69546;SHT31;56766;52.260;20.746;2022-07-10T04:03:00;15.89;75.64
69546;SHT31;56766;52.260;20.746;2022-07-10T04:05:29;16.05;75.43
69546;SHT31;56766;52.260;20.746;2022-07-10T04:07:58;16.08;75.39
69546;SHT31;56766;52.260;20.746;2022-07-10T04:10:27;16.06;75.26
69546;SHT31;56766;52.260;20.746;2022-07-10T04:12:55;16.06;75.18
69546;SHT31;56766;52.260;20.746;2022-07-10T04:15:22;16.05;74.98
69546;SHT31;56766;52.260;20.746;2022-07-10T04:17:50;16.02;74.90
69546;SHT31;56766;52.260;20.746;2022-07-10T04:20:35;16.09;74.91
69546;SHT31;56766;52.260;20.746;2022-07-10T04:23:01;16.15;74.63
69546;SHT31;56766;52.260;20.746;2022-07-10T04:25:28;16.21;74.57
69546;SHT31;56766;52.260;20.746;2022-07-10T04:27:55;16.20;74.08
69546;SHT31;56766;52.260;20.746;2022-07-10T04:30:22;16.16;73.90
69546;SHT31;56766;52.260;20.746;2022-07-10T04:32:48;16.17;74.10
69546;SHT31;56766;52.260;20.746;2022-07-10T04:35:15;16.24;73.71
69546;SHT31;56766;52.260;20.746;2022-07-10T04:37:41;16.28;73.51
69546;SHT31;56766;52.260;20.746;2022-07-10T04:40:09;16.33;73.39
69546;SHT31;56766;52.260;20.746;2022-07-10T04:42:36;16.38;73.19
69546;SHT31;56766;52.260;20.746;2022-07-10T04:45:03;16.41;72.91
69546;SHT31;56766;52.260;20.746;2022-07-10T04:47:30;16.45;72.72
69546;SHT31;56766;52.260;20.746;2022-07-10T04:49:57;16.49;72.21
69546;SHT31;56766;52.260;20.746;2022-07-10T04:52:24;16.58;72.14
69546;SHT31;56766;52.260;20.746;2022-07-10T04:54:50;16.65;71.94
69546;SHT31;56766;52.260;20.746;2022-07-10T04:57:17;16.74;71.98
69546;SHT31;56766;52.260;20.746;2022-07-10T04:59:43;16.96;71.83
69546;SHT31;56766;52.260;20.746;2022-07-10T05:02:10;17.15;71.23
69546;SHT31;56766;52.260;20.746;2022-07-10T05:04:37;17.27;71.12
69546;SHT31;56766;52.260;20.746;2022-07-10T05:07:03;17.35;70.43
69546;SHT31;56766;52.260;20.746;2022-07-10T05:09:30;17.26;69.73
69546;SHT31;56766;52.260;20.746;2022-07-10T05:11:57;17.26;69.77
69546;SHT31;56766;52.260;20.746;2022-07-10T05:14:23;17.22;69.81
69546;SHT31;56766;52.260;20.746;2022-07-10T05:16:51;17.19;70.24
69546;SHT31;56766;52.260;20.746;2022-07-10T05:19:18;17.25;70.99
69546;SHT31;56766;52.260;20.746;2022-07-10T05:21:45;17.34;70.63
69546;SHT31;56766;52.260;20.746;2022-07-10T05:24:12;17.42;70.23
69546;SHT31;56766;52.260;20.746;2022-07-10T05:26:38;17.53;70.42
69546;SHT31;56766;52.260;20.746;2022-07-10T05:29:05;17.68;69.50
69546;SHT31;56766;52.260;20.746;2022-07-10T05:31:32;17.74;69.32
69546;SHT31;56766;52.260;20.746;2022-07-10T05:33:58;17.84;68.73
69546;SHT31;56766;52.260;20.746;2022-07-10T05:36:25;17.85;68.37
69546;SHT31;56766;52.260;20.746;2022-07-10T05:38:51;17.88;68.77
69546;SHT31;56766;52.260;20.746;2022-07-10T05:41:18;17.91;68.65
69546;SHT31;56766;52.260;20.746;2022-07-10T05:43:45;17.99;68.96
69546;SHT31;56766;52.260;20.746;2022-07-10T05:46:12;18.02;69.27
69546;SHT31;56766;52.260;20.746;2022-07-10T05:48:38;18.06;69.59
69546;SHT31;56766;52.260;20.746;2022-07-10T05:51:05;18.16;69.26
69546;SHT31;56766;52.260;20.746;2022-07-10T05:53:32;18.29;69.46
69546;SHT31;56766;52.260;20.746;2022-07-10T05:56:01;18.43;69.65
69546;SHT31;56766;52.260;20.746;2022-07-10T05:58:28;18.54;69.27
69546;SHT31;56766;52.260;20.746;2022-07-10T06:00:56;18.67;68.65
69546;SHT31;56766;52.260;20.746;2022-07-10T06:03:22;18.74;68.59
69546;SHT31;56766;52.260;20.746;2022-07-10T06:05:49;18.76;68.43
69546;SHT31;56766;52.260;20.746;2022-07-10T06:08:15;18.74;68.70
69546;SHT31;56766;52.260;20.746;2022-07-10T06:10:42;18.69;68.26
69546;SHT31;56766;52.260;20.746;2022-07-10T06:13:11;18.66;68.10
69546;SHT31;56766;52.260;20.746;2022-07-10T06:15:38;18.69;68.29
69546;SHT31;56766;52.260;20.746;2022-07-10T06:18:05;18.83;68.15
69546;SHT31;56766;52.260;20.746;2022-07-10T06:20:32;18.95;67.86
69546;SHT31;56766;52.260;20.746;2022-07-10T06:22:59;19.04;67.52
69546;SHT31;56766;52.260;20.746;2022-07-10T06:25:25;19.08;67.14
69546;SHT31;56766;52.260;20.746;2022-07-10T06:27:52;19.17;66.69
69546;SHT31;56766;52.260;20.746;2022-07-10T06:30:19;19.23;65.94
69546;SHT31;56766;52.260;20.746;2022-07-10T06:32:46;19.35;65.18
69546;SHT31;56766;52.260;20.746;2022-07-10T06:35:13;19.49;64.93
69546;SHT31;56766;52.260;20.746;2022-07-10T06:37:39;19.60;64.46
69546;SHT31;56766;52.260;20.746;2022-07-10T06:40:06;19.64;63.26
69546;SHT31;56766;52.260;20.746;2022-07-10T06:42:36;19.68;63.50
69546;SHT31;56766;52.260;20.746;2022-07-10T06:45:03;19.81;62.74
69546;SHT31;56766;52.260;20.746;2022-07-10T06:47:30;19.90;63.25
69546;SHT31;56766;52.260;20.746;2022-07-10T06:50:15;20.14;62.90
69546;SHT31;56766;52.260;20.746;2022-07-10T06:52:42;20.32;63.06
69546;SHT31;56766;52.260;20.746;2022-07-10T06:55:09;20.49;62.36
69546;SHT31;56766;52.260;20.746;2022-07-10T06:57:38;20.64;61.27
69546;SHT31;56766;52.260;20.746;2022-07-10T07:00:07;20.77;60.66
69546;SHT31;56766;52.260;20.746;2022-07-10T07:02:35;20.89;59.98
69546;SHT31;56766;52.260;20.746;2022-07-10T07:05:03;21.00;59.96
69546;SHT31;56766;52.260;20.746;2022-07-10T07:07:30;21.10;59.24
69546;SHT31;56766;52.260;20.746;2022-07-10T07:09:57;21.14;56.89
69546;SHT31;56766;52.260;20.746;2022-07-10T07:12:24;21.10;57.28
69546;SHT31;56766;52.260;20.746;2022-07-10T07:14:50;21.17;57.59
69546;SHT31;56766;52.260;20.746;2022-07-10T07:17:17;21.15;56.57
69546;SHT31;56766;52.260;20.746;2022-07-10T07:19:55;21.03;56.12
69546;SHT31;56766;52.260;20.746;2022-07-10T07:22:41;20.91;56.31
69546;SHT31;56766;52.260;20.746;2022-07-10T07:25:26;20.90;56.55
69546;SHT31;56766;52.260;20.746;2022-07-10T07:27:53;20.85;56.90
69546;SHT31;56766;52.260;20.746;2022-07-10T07:30:19;20.87;56.53
69546;SHT31;56766;52.260;20.746;2022-07-10T07:32:46;20.78;54.91
69546;SHT31;56766;52.260;20.746;2022-07-10T07:35:16;20.50;55.20
69546;SHT31;56766;52.260;20.746;2022-07-10T07:37:44;20.44;56.31
69546;SHT31;56766;52.260;20.746;2022-07-10T07:40:23;20.49;57.01
69546;SHT31;56766;52.260;20.746;2022-07-10T07:42:52;20.67;57.48
69546;SHT31;56766;52.260;20.746;2022-07-10T07:45:23;20.80;57.11
69546;SHT31;56766;52.260;20.746;2022-07-10T07:47:53;20.75;56.71
69546;SHT31;56766;52.260;20.746;2022-07-10T07:50:31;20.56;56.07
69546;SHT31;56766;52.260;20.746;2022-07-10T07:53:00;20.42;56.83
69546;SHT31;56766;52.260;20.746;2022-07-10T07:55:30;20.26;57.59
69546;SHT31;56766;52.260;20.746;2022-07-10T07:57:57;19.97;57.96
69546;SHT31;56766;52.260;20.746;2022-07-10T08:00:27;19.65;59.31
69546;SHT31;56766;52.260;20.746;2022-07-10T08:02:56;19.35;60.01
69546;SHT31;56766;52.260;20.746;2022-07-10T08:05:24;19.20;60.46
69546;SHT31;56766;52.260;20.746;2022-07-10T08:07:53;19.14;61.51
69546;SHT31;56766;52.260;20.746;2022-07-10T08:10:24;19.21;62.42
69546;SHT31;56766;52.260;20.746;2022-07-10T08:12:53;19.30;62.41
69546;SHT31;56766;52.260;20.746;2022-07-10T08:15:20;19.42;62.66
69546;SHT31;56766;52.260;20.746;2022-07-10T08:17:53;19.54;62.61
69546;SHT31;56766;52.260;20.746;2022-07-10T08:20:25;19.56;62.13
69546;SHT31;56766;52.260;20.746;2022-07-10T08:22:52;19.60;62.62
69546;SHT31;56766;52.260;20.746;2022-07-10T08:25:20;19.88;62.48
69546;SHT31;56766;52.260;20.746;2022-07-10T08:27:47;20.24;60.61
69546;SHT31;56766;52.260;20.746;2022-07-10T08:30:14;20.41;58.51
69546;SHT31;56766;52.260;20.746;2022-07-10T08:32:41;20.63;58.12
69546;SHT31;56766;52.260;20.746;2022-07-10T08:35:09;20.90;56.91
69546;SHT31;56766;52.260;20.746;2022-07-10T08:37:41;21.27;56.70
69546;SHT31;56766;52.260;20.746;2022-07-10T08:40:10;21.76;56.02
69546;SHT31;56766;52.260;20.746;2022-07-10T08:42:41;22.09;53.08
69546;SHT31;56766;52.260;20.746;2022-07-10T08:45:11;22.26;53.92
69546;SHT31;56766;52.260;20.746;2022-07-10T08:47:38;22.15;52.40
69546;SHT31;56766;52.260;20.746;2022-07-10T08:50:26;21.73;50.58
69546;SHT31;56766;52.260;20.746;2022-07-10T08:53:16;21.40;51.74
69546;SHT31;56766;52.260;20.746;2022-07-10T08:55:50;21.18;52.96
69546;SHT31;56766;52.260;20.746;2022-07-10T08:58:18;21.37;52.35
69546;SHT31;56766;52.260;20.746;2022-07-10T09:00:46;21.65;49.66
69546;SHT31;56766;52.260;20.746;2022-07-10T09:03:12;21.95;49.81
69546;SHT31;56766;52.260;20.746;2022-07-10T09:05:39;22.06;48.90
69546;SHT31;56766;52.260;20.746;2022-07-10T09:08:26;21.78;49.12
69546;SHT31;56766;52.260;20.746;2022-07-10T09:11:17;21.40;50.32
69546;SHT31;56766;52.260;20.746;2022-07-10T09:13:53;20.97;50.46
69546;SHT31;56766;52.260;20.746;2022-07-10T09:16:28;20.69;52.02
69546;SHT31;56766;52.260;20.746;2022-07-10T09:18:56;20.49;52.41
69546;SHT31;56766;52.260;20.746;2022-07-10T09:21:40;20.27;53.58
69546;SHT31;56766;52.260;20.746;2022-07-10T09:24:09;20.10;53.93
69546;SHT31;56766;52.260;20.746;2022-07-10T09:26:37;19.97;53.66
69546;SHT31;56766;52.260;20.746;2022-07-10T09:29:11;19.94;53.78
69546;SHT31;56766;52.260;20.746;2022-07-10T09:31:49;20.19;54.46
69546;SHT31;56766;52.260;20.746;2022-07-10T09:34:18;20.64;53.94
69546;SHT31;56766;52.260;20.746;2022-07-10T09:37:20;21.20;52.37
69546;SHT31;56766;52.260;20.746;2022-07-10T09:40:01;21.67;51.67
69546;SHT31;56766;52.260;20.746;2022-07-10T09:42:35;21.69;50.45
69546;SHT31;56766;52.260;20.746;2022-07-10T09:52:58;20.31;52.25
69546;SHT31;56766;52.260;20.746;2022-07-10T09:55:30;20.38;50.84
69546;SHT31;56766;52.260;20.746;2022-07-10T09:58:03;20.80;51.66
69546;SHT31;56766;52.260;20.746;2022-07-10T10:00:34;21.57;51.25
69546;SHT31;56766;52.260;20.746;2022-07-10T10:03:06;22.00;49.08
69546;SHT31;56766;52.260;20.746;2022-07-10T10:05:41;21.88;47.62
69546;SHT31;56766;52.260;20.746;2022-07-10T10:10:58;21.81;48.54
69546;SHT31;56766;52.260;20.746;2022-07-10T10:13:27;22.45;47.94
69546;SHT31;56766;52.260;20.746;2022-07-10T10:15:55;22.93;46.85
69546;SHT31;56766;52.260;20.746;2022-07-10T10:18:24;23.06;45.53
69546;SHT31;56766;52.260;20.746;2022-07-10T10:20:54;22.90;46.52
69546;SHT31;56766;52.260;20.746;2022-07-10T10:23:23;22.82;45.72
69546;SHT31;56766;52.260;20.746;2022-07-10T10:25:56;22.67;45.82
69546;SHT31;56766;52.260;20.746;2022-07-10T10:28:25;22.63;46.24
69546;SHT31;56766;52.260;20.746;2022-07-10T10:30:57;22.70;46.24
69546;SHT31;56766;52.260;20.746;2022-07-10T10:36:00;22.99;46.58
69546;SHT31;56766;52.260;20.746;2022-07-10T10:41:30;22.28;46.16
69546;SHT31;56766;52.260;20.746;2022-07-10T10:49:24;21.61;48.56
69546;SHT31;56766;52.260;20.746;2022-07-10T10:52:09;21.56;48.24
69546;SHT31;56766;52.260;20.746;2022-07-10T11:00:04;22.11;49.76
69546;SHT31;56766;52.260;20.746;2022-07-10T11:02:36;22.52;48.95
69546;SHT31;56766;52.260;20.746;2022-07-10T11:08:01;23.26;46.81
69546;SHT31;56766;52.260;20.746;2022-07-10T11:18:21;23.51;46.02
69546;SHT31;56766;52.260;20.746;2022-07-10T11:20:50;23.28;46.03
69546;SHT31;56766;52.260;20.746;2022-07-10T11:26:20;23.02;46.15
69546;SHT31;56766;52.260;20.746;2022-07-10T11:28:59;22.86;46.52
69546;SHT31;56766;52.260;20.746;2022-07-10T11:31:29;22.65;45.39
69546;SHT31;56766;52.260;20.746;2022-07-10T11:33:57;22.40;45.56
69546;SHT31;56766;52.260;20.746;2022-07-10T11:36:25;22.04;44.87
69546;SHT31;56766;52.260;20.746;2022-07-10T11:41:31;21.51;46.42
69546;SHT31;56766;52.260;20.746;2022-07-10T11:44:03;21.32;46.94
69546;SHT31;56766;52.260;20.746;2022-07-10T11:46:34;21.35;48.15
69546;SHT31;56766;52.260;20.746;2022-07-10T11:49:05;21.56;48.69
69546;SHT31;56766;52.260;20.746;2022-07-10T11:51:37;22.07;49.47
69546;SHT31;56766;52.260;20.746;2022-07-10T11:54:11;22.17;46.99
69546;SHT31;56766;52.260;20.746;2022-07-10T11:56:41;22.32;48.44
69546;SHT31;56766;52.260;20.746;2022-07-10T11:59:14;22.55;47.12
69546;SHT31;56766;52.260;20.746;2022-07-10T12:01:44;22.56;46.11
69546;SHT31;56766;52.260;20.746;2022-07-10T12:04:15;22.65;47.12
69546;SHT31;56766;52.260;20.746;2022-07-10T12:06:47;22.89;47.29
69546;SHT31;56766;52.260;20.746;2022-07-10T12:09:17;23.23;47.39
69546;SHT31;56766;52.260;20.746;2022-07-10T12:12:02;23.55;47.35
69546;SHT31;56766;52.260;20.746;2022-07-10T12:14:32;23.56;47.50
69546;SHT31;56766;52.260;20.746;2022-07-10T12:16:59;23.28;45.92
69546;SHT31;56766;52.260;20.746;2022-07-10T12:19:29;22.87;45.39
69546;SHT31;56766;52.260;20.746;2022-07-10T12:22:00;22.69;44.73
69546;SHT31;56766;52.260;20.746;2022-07-10T12:24:28;22.73;45.16
69546;SHT31;56766;52.260;20.746;2022-07-10T12:26:55;22.97;43.76
69546;SHT31;56766;52.260;20.746;2022-07-10T12:29:25;23.04;43.61
69546;SHT31;56766;52.260;20.746;2022-07-10T12:31:59;23.02;43.80
69546;SHT31;56766;52.260;20.746;2022-07-10T12:37:14;23.34;44.64
69546;SHT31;56766;52.260;20.746;2022-07-10T12:39:48;23.47;45.48
69546;SHT31;56766;52.260;20.746;2022-07-10T12:42:28;23.33;45.42
69546;SHT31;56766;52.260;20.746;2022-07-10T12:45:13;23.04;45.38
69546;SHT31;56766;52.260;20.746;2022-07-10T12:47:45;22.69;46.37
69546;SHT31;56766;52.260;20.746;2022-07-10T12:50:15;22.72;47.06
69546;SHT31;56766;52.260;20.746;2022-07-10T12:52:46;23.09;45.92
69546;SHT31;56766;52.260;20.746;2022-07-10T12:55:20;23.42;46.15
69546;SHT31;56766;52.260;20.746;2022-07-10T12:57:57;23.56;45.85
69546;SHT31;56766;52.260;20.746;2022-07-10T13:00:28;23.53;44.90
69546;SHT31;56766;52.260;20.746;2022-07-10T13:03:00;23.56;45.22
69546;SHT31;56766;52.260;20.746;2022-07-10T13:05:31;23.52;44.86
69546;SHT31;56766;52.260;20.746;2022-07-10T13:08:06;23.33;44.75
69546;SHT31;56766;52.260;20.746;2022-07-10T13:10:50;22.72;45.44
69546;SHT31;56766;52.260;20.746;2022-07-10T13:13:19;22.31;47.08
69546;SHT31;56766;52.260;20.746;2022-07-10T13:15:46;21.63;50.01
69546;SHT31;56766;52.260;20.746;2022-07-10T13:18:21;20.73;54.55
69546;SHT31;56766;52.260;20.746;2022-07-10T13:20:51;19.70;59.88
69546;SHT31;56766;52.260;20.746;2022-07-10T13:23:20;18.90;62.46
69546;SHT31;56766;52.260;20.746;2022-07-10T13:25:49;18.38;64.29
69546;SHT31;56766;52.260;20.746;2022-07-10T13:28:16;17.94;64.96
69546;SHT31;56766;52.260;20.746;2022-07-10T13:30:43;17.70;65.57
69546;SHT31;56766;52.260;20.746;2022-07-10T13:33:11;17.63;65.77
69546;SHT31;56766;52.260;20.746;2022-07-10T13:35:38;17.78;66.29
69546;SHT31;56766;52.260;20.746;2022-07-10T13:38:06;18.05;66.04
69546;SHT31;56766;52.260;20.746;2022-07-10T13:40:35;18.31;65.56
69546;SHT31;56766;52.260;20.746;2022-07-10T13:43:04;18.55;65.50
69546;SHT31;56766;52.260;20.746;2022-07-10T13:45:35;18.81;64.60
69546;SHT31;56766;52.260;20.746;2022-07-10T13:48:13;18.88;64.76
69546;SHT31;56766;52.260;20.746;2022-07-10T13:50:43;18.86;64.15
69546;SHT31;56766;52.260;20.746;2022-07-10T13:53:18;18.66;63.30
69546;SHT31;56766;52.260;20.746;2022-07-10T13:55:47;18.46;64.06
69546;SHT31;56766;52.260;20.746;2022-07-10T13:58:14;18.38;64.45
69546;SHT31;56766;52.260;20.746;2022-07-10T14:00:42;18.29;64.96
69546;SHT31;56766;52.260;20.746;2022-07-10T14:03:08;18.23;64.99
69546;SHT31;56766;52.260;20.746;2022-07-10T14:05:36;18.14;64.38
69546;SHT31;56766;52.260;20.746;2022-07-10T14:08:03;18.08;63.98
69546;SHT31;56766;52.260;20.746;2022-07-10T14:10:30;17.97;62.71
69546;SHT31;56766;52.260;20.746;2022-07-10T14:12:57;17.95;63.21
69546;SHT31;56766;52.260;20.746;2022-07-10T14:15:24;18.08;63.47
69546;SHT31;56766;52.260;20.746;2022-07-10T14:17:51;18.20;62.80
69546;SHT31;56766;52.260;20.746;2022-07-10T14:20:18;18.19;62.46
69546;SHT31;56766;52.260;20.746;2022-07-10T14:22:45;18.27;62.69
69546;SHT31;56766;52.260;20.746;2022-07-10T14:25:14;18.33;62.41
69546;SHT31;56766;52.260;20.746;2022-07-10T14:27:41;18.33;62.34
69546;SHT31;56766;52.260;20.746;2022-07-10T14:30:09;18.33;62.28
69546;SHT31;56766;52.260;20.746;2022-07-10T14:32:36;18.35;62.50
69546;SHT31;56766;52.260;20.746;2022-07-10T14:35:03;18.34;62.86
69546;SHT31;56766;52.260;20.746;2022-07-10T14:37:30;18.32;62.95
69546;SHT31;56766;52.260;20.746;2022-07-10T14:39:57;18.23;63.50
69546;SHT31;56766;52.260;20.746;2022-07-10T14:42:23;18.07;63.29
69546;SHT31;56766;52.260;20.746;2022-07-10T14:44:50;17.86;63.85
69546;SHT31;56766;52.260;20.746;2022-07-10T14:47:17;17.60;63.81
69546;SHT31;56766;52.260;20.746;2022-07-10T14:49:43;17.43;64.46
69546;SHT31;56766;52.260;20.746;2022-07-10T14:52:10;17.41;64.94
69546;SHT31;56766;52.260;20.746;2022-07-10T14:54:37;17.43;65.15
69546;SHT31;56766;52.260;20.746;2022-07-10T14:57:04;17.47;65.34
69546;SHT31;56766;52.260;20.746;2022-07-10T14:59:31;17.57;65.66
69546;SHT31;56766;52.260;20.746;2022-07-10T15:01:57;17.79;66.01
69546;SHT31;56766;52.260;20.746;2022-07-10T15:04:24;18.00;65.81
69546;SHT31;56766;52.260;20.746;2022-07-10T15:06:50;18.30;65.76
69546;SHT31;56766;52.260;20.746;2022-07-10T15:09:17;18.60;64.77
69546;SHT31;56766;52.260;20.746;2022-07-10T15:11:44;18.80;64.60
69546;SHT31;56766;52.260;20.746;2022-07-10T15:14:10;18.98;63.66
69546;SHT31;56766;52.260;20.746;2022-07-10T15:16:37;19.08;62.99
69546;SHT31;56766;52.260;20.746;2022-07-10T15:19:04;19.10;62.45
69546;SHT31;56766;52.260;20.746;2022-07-10T15:21:31;19.08;62.48
69546;SHT31;56766;52.260;20.746;2022-07-10T15:23:58;19.14;62.83
69546;SHT31;56766;52.260;20.746;2022-07-10T15:26:24;19.15;62.52
69546;SHT31;56766;52.260;20.746;2022-07-10T15:28:51;19.12;62.23
69546;SHT31;56766;52.260;20.746;2022-07-10T15:31:18;19.02;62.10
69546;SHT31;56766;52.260;20.746;2022-07-10T15:33:44;18.79;62.15
69546;SHT31;56766;52.260;20.746;2022-07-10T15:36:12;18.73;62.54
69546;SHT31;56766;52.260;20.746;2022-07-10T15:38:39;18.86;61.42
69546;SHT31;56766;52.260;20.746;2022-07-10T15:41:07;18.83;61.40
69546;SHT31;56766;52.260;20.746;2022-07-10T15:43:34;18.78;61.21
69546;SHT31;56766;52.260;20.746;2022-07-10T15:46:01;18.88;60.73
69546;SHT31;56766;52.260;20.746;2022-07-10T15:48:28;18.94;60.22
69546;SHT31;56766;52.260;20.746;2022-07-10T15:50:55;18.89;60.08
69546;SHT31;56766;52.260;20.746;2022-07-10T15:53:22;18.75;60.00
69546;SHT31;56766;52.260;20.746;2022-07-10T15:55:49;18.39;59.55
69546;SHT31;56766;52.260;20.746;2022-07-10T15:58:16;18.04;59.92
69546;SHT31;56766;52.260;20.746;2022-07-10T16:00:43;17.82;60.44
69546;SHT31;56766;52.260;20.746;2022-07-10T16:03:09;17.68;60.55
69546;SHT31;56766;52.260;20.746;2022-07-10T16:05:36;17.64;60.96
69546;SHT31;56766;52.260;20.746;2022-07-10T16:08:03;17.54;61.51
69546;SHT31;56766;52.260;20.746;2022-07-10T16:10:31;17.42;62.32
69546;SHT31;56766;52.260;20.746;2022-07-10T16:12:58;17.30;62.47